createdAt,value
2022-10-31T00:01:53.329Z,18.23
2022-10-31T00:04:23.956Z,18.20
2022-10-31T00:06:50.471Z,18.14
2022-10-31T00:09:16.920Z,18.09
2022-10-31T00:11:43.422Z,18.04
2022-10-31T00:14:14.884Z,17.99
2022-10-31T00:16:42.549Z,17.95
2022-10-31T00:19:09.609Z,17.87
2022-10-31T00:21:36.394Z,17.78
2022-10-31T00:24:05.770Z,17.75
2022-10-31T00:26:32.868Z,17.74
2022-10-31T00:29:00.224Z,17.72
2022-10-31T00:31:27.541Z,17.72
2022-10-31T00:33:54.541Z,17.71
2022-10-31T00:36:22.623Z,17.72
2022-10-31T00:38:49.457Z,17.73
2022-10-31T00:41:17.953Z,17.72
2022-10-31T00:43:44.501Z,17.71
2022-10-31T00:46:11.935Z,17.70
2022-10-31T00:48:38.528Z,17.68
2022-10-31T00:51:05.427Z,17.66
2022-10-31T00:53:32.492Z,17.63
2022-10-31T00:56:04.354Z,17.58
2022-10-31T00:58:30.868Z,17.57
2022-10-31T01:00:57.695Z,17.57
2022-10-31T01:03:26.221Z,17.56
2022-10-31T01:06:05.546Z,17.52
2022-10-31T01:08:33.180Z,17.51
2022-10-31T01:11:18.272Z,17.47
2022-10-31T01:13:46.096Z,17.45
2022-10-31T01:16:18.992Z,17.44
2022-10-31T01:18:45.840Z,17.43
2022-10-31T01:21:25.291Z,17.41
2022-10-31T01:23:54.596Z,17.41
2022-10-31T01:26:25.432Z,17.37
2022-10-31T01:29:00.692Z,17.37
2022-10-31T01:31:31.523Z,17.33
2022-10-31T01:33:58.608Z,17.32
2022-10-31T01:36:40.802Z,17.25
2022-10-31T01:39:13.086Z,17.23
2022-10-31T01:41:43.442Z,17.23
2022-10-31T01:44:17.087Z,17.21
2022-10-31T01:46:51.332Z,17.15
2022-10-31T01:49:22.504Z,17.10
2022-10-31T01:51:56.846Z,17.06
2022-10-31T01:54:29.109Z,17.01
2022-10-31T01:56:58.223Z,16.98
2022-10-31T01:59:30.785Z,16.92
2022-10-31T02:01:57.891Z,16.86
2022-10-31T02:04:27.056Z,16.82
2022-10-31T02:07:11.584Z,16.80
2022-10-31T02:09:38.566Z,16.78
2022-10-31T02:12:06.622Z,16.77
2022-10-31T02:14:34.366Z,16.76
2022-10-31T02:17:00.899Z,16.75
2022-10-31T02:19:28.005Z,16.71
2022-10-31T02:22:07.108Z,16.70
2022-10-31T02:24:37.120Z,16.72
2022-10-31T02:27:08.728Z,16.71
2022-10-31T02:30:04.683Z,16.71
2022-10-31T02:32:45.647Z,16.69
2022-10-31T02:35:28.864Z,16.65
2022-10-31T02:38:14.624Z,16.62
2022-10-31T02:40:54.390Z,16.58
2022-10-31T02:43:55.565Z,16.56
2022-10-31T02:46:45.988Z,16.49
2022-10-31T02:49:33.358Z,16.46
2022-10-31T02:51:59.826Z,16.42
2022-10-31T02:54:29.926Z,16.36
2022-10-31T02:57:08.090Z,16.32
2022-10-31T02:59:36.966Z,16.28
2022-10-31T03:02:11.497Z,16.28
2022-10-31T03:04:52.493Z,16.27
2022-10-31T03:07:44.654Z,16.28
2022-10-31T03:10:32.331Z,16.25
2022-10-31T03:13:30.416Z,16.21
2022-10-31T03:16:39.099Z,16.21
2022-10-31T03:19:18.442Z,16.23
2022-10-31T03:21:46.856Z,16.22
2022-10-31T03:24:16.338Z,16.21
2022-10-31T03:26:48.592Z,16.21
2022-10-31T03:29:19.832Z,16.21
2022-10-31T03:31:58.010Z,16.20
2022-10-31T03:34:30.921Z,16.21
2022-10-31T03:37:02.523Z,16.20
2022-10-31T03:39:30.649Z,16.17
2022-10-31T03:42:12.160Z,16.11
2022-10-31T03:44:47.155Z,16.07
2022-10-31T03:47:14.150Z,16.04
2022-10-31T03:49:40.704Z,16.01
2022-10-31T03:52:35.458Z,16.00
2022-10-31T03:55:20.764Z,15.99
2022-10-31T03:58:09.138Z,16.01
2022-10-31T04:00:37.954Z,16.02
2022-10-31T04:03:13.527Z,16.00
2022-10-31T04:05:52.617Z,15.99
2022-10-31T04:08:23.999Z,15.95
2022-10-31T04:10:53.149Z,15.87
2022-10-31T04:13:25.186Z,15.79
2022-10-31T04:16:04.831Z,15.72
2022-10-31T04:18:32.837Z,15.69
2022-10-31T04:21:08.064Z,15.67
2022-10-31T04:23:36.321Z,15.68
2022-10-31T04:26:14.845Z,15.67
2022-10-31T04:28:43.921Z,15.68
2022-10-31T04:31:13.112Z,15.67
2022-10-31T04:33:40.184Z,15.69
2022-10-31T04:36:08.246Z,15.70
2022-10-31T04:38:34.831Z,15.69
2022-10-31T04:41:04.356Z,15.68
2022-10-31T04:43:49.599Z,15.68
2022-10-31T04:46:17.121Z,15.69
2022-10-31T04:48:43.702Z,15.69
2022-10-31T04:51:11.228Z,15.70
2022-10-31T04:53:39.109Z,15.72
2022-10-31T04:56:31.903Z,15.76
2022-10-31T04:59:06.166Z,15.78
2022-10-31T05:01:45.324Z,15.79
2022-10-31T05:04:15.268Z,15.81
2022-10-31T05:06:42.224Z,15.82
2022-10-31T05:09:08.930Z,15.85
2022-10-31T05:11:35.513Z,15.86
2022-10-31T05:14:21.606Z,15.88
2022-10-31T05:17:23.189Z,15.87
2022-10-31T05:20:08.468Z,15.83
2022-10-31T05:22:55.419Z,15.74
2022-10-31T05:25:28.536Z,15.66
2022-10-31T05:27:56.197Z,15.62
2022-10-31T05:30:25.669Z,15.59
2022-10-31T05:32:52.965Z,15.54
2022-10-31T05:35:42.724Z,15.52
2022-10-31T05:38:38.758Z,15.46
2022-10-31T05:41:20.079Z,15.46
2022-10-31T05:43:47.707Z,15.44
2022-10-31T05:46:42.019Z,15.40
2022-10-31T05:49:27.367Z,15.38
2022-10-31T05:52:25.997Z,15.37
2022-10-31T05:55:04.100Z,15.36
2022-10-31T05:57:33.208Z,15.37
2022-10-31T05:59:59.740Z,15.38
2022-10-31T06:02:27.683Z,15.39
2022-10-31T06:05:18.687Z,15.41
2022-10-31T06:07:46.516Z,15.43
2022-10-31T06:10:13.045Z,15.44
2022-10-31T06:12:41.576Z,15.45
2022-10-31T06:15:24.187Z,15.46
2022-10-31T06:18:04.414Z,15.46
2022-10-31T06:20:35.441Z,15.43
2022-10-31T06:23:04.909Z,15.39
2022-10-31T06:25:34.104Z,15.34
2022-10-31T06:28:00.995Z,15.29
2022-10-31T06:30:36.506Z,15.23
2022-10-31T06:33:05.218Z,15.14
2022-10-31T06:35:34.316Z,15.06
2022-10-31T06:38:01.507Z,14.98
2022-10-31T06:40:35.584Z,14.91
2022-10-31T06:43:31.708Z,14.85
2022-10-31T06:46:22.459Z,14.83
2022-10-31T06:49:05.708Z,14.81
2022-10-31T06:51:38.316Z,14.78
2022-10-31T06:54:10.947Z,14.76
2022-10-31T06:56:37.721Z,14.78
2022-10-31T06:59:04.985Z,14.77
2022-10-31T07:01:51.590Z,14.78
2022-10-31T07:04:23.607Z,14.80
2022-10-31T07:06:52.524Z,14.81
2022-10-31T07:09:19.958Z,14.82
2022-10-31T07:11:47.205Z,14.81
2022-10-31T07:14:15.658Z,14.82
2022-10-31T07:16:42.247Z,14.80
2022-10-31T07:19:09.691Z,14.79
2022-10-31T07:21:36.183Z,14.77
2022-10-31T07:24:10.089Z,14.76
2022-10-31T07:29:29.550Z,14.80
2022-10-31T07:31:56.101Z,14.83
2022-10-31T07:34:30.816Z,14.85
2022-10-31T07:37:19.629Z,14.91
2022-10-31T07:39:46.380Z,14.94
2022-10-31T07:42:13.062Z,14.99
2022-10-31T07:44:47.794Z,15.07
2022-10-31T07:47:59.553Z,15.15
2022-10-31T07:50:58.336Z,15.25
2022-10-31T07:53:43.587Z,15.34
2022-10-31T07:56:25.364Z,15.44
2022-10-31T07:58:52.499Z,15.50
2022-10-31T08:01:18.946Z,15.60
2022-10-31T08:03:59.027Z,15.69
2022-10-31T08:06:45.524Z,15.76
2022-10-31T08:09:24.702Z,15.81
2022-10-31T08:11:53.973Z,15.88
2022-10-31T08:14:23.293Z,15.96
2022-10-31T08:16:53.588Z,16.04
2022-10-31T08:19:20.833Z,16.14
2022-10-31T08:21:47.370Z,16.25
2022-10-31T08:24:18.114Z,16.36
2022-10-31T08:26:45.180Z,16.46
2022-10-31T08:29:12.282Z,16.56
2022-10-31T08:31:42.816Z,16.67
2022-10-31T08:34:33.484Z,16.83
2022-10-31T08:37:29.343Z,17.00
2022-10-31T08:39:56.446Z,17.12
2022-10-31T08:42:23.141Z,17.30
2022-10-31T08:44:54.024Z,17.45
2022-10-31T08:47:22.248Z,17.60
2022-10-31T08:49:48.892Z,17.72
2022-10-31T08:52:15.927Z,17.87
2022-10-31T08:54:45.312Z,18.02
2022-10-31T08:57:30.540Z,18.15
2022-10-31T08:59:58.957Z,18.30
2022-10-31T09:02:31.857Z,18.42
2022-10-31T09:05:00.934Z,18.55
2022-10-31T09:07:28.074Z,18.63
2022-10-31T09:09:54.653Z,18.71
2022-10-31T09:12:21.226Z,18.75
2022-10-31T09:15:14.949Z,18.80
2022-10-31T09:17:49.829Z,18.83
2022-10-31T09:20:39.773Z,18.86
2022-10-31T09:23:11.219Z,18.88
2022-10-31T09:25:41.069Z,18.89
2022-10-31T09:28:27.604Z,18.90
2022-10-31T09:30:58.181Z,18.90
2022-10-31T09:33:43.319Z,18.93
2022-10-31T09:36:28.400Z,18.97
2022-10-31T09:38:55.804Z,19.04
2022-10-31T09:41:56.161Z,19.10
2022-10-31T09:45:01.552Z,19.17
2022-10-31T09:47:48.852Z,19.26
2022-10-31T09:50:56.700Z,19.33
2022-10-31T09:54:14.101Z,19.47
2022-10-31T09:56:40.907Z,19.54
2022-10-31T09:59:18.039Z,19.57
2022-10-31T10:01:57.272Z,19.61
2022-10-31T10:04:58.133Z,19.64
2022-10-31T10:07:33.635Z,19.68
2022-10-31T10:10:52.559Z,19.71
2022-10-31T10:13:31.589Z,19.76
2022-10-31T10:16:22.185Z,19.78
2022-10-31T10:19:20.809Z,19.81
2022-10-31T10:21:59.356Z,19.87
2022-10-31T10:24:45.994Z,19.92
2022-10-31T10:27:41.457Z,20.03
2022-10-31T10:30:11.115Z,20.16
2022-10-31T10:32:52.218Z,20.28
2022-10-31T10:35:56.703Z,20.40
2022-10-31T10:39:15.452Z,20.56
2022-10-31T10:41:47.927Z,20.72
2022-10-31T10:44:18.654Z,20.86
2022-10-31T10:47:14.537Z,20.98
2022-10-31T10:49:40.972Z,21.09
2022-10-31T10:52:42.109Z,21.16
2022-10-31T10:55:28.866Z,21.20
2022-10-31T10:58:04.839Z,21.20
2022-10-31T11:00:33.394Z,21.20
2022-10-31T11:03:00.134Z,21.21
2022-10-31T11:05:53.600Z,21.21
2022-10-31T11:08:27.463Z,21.27
2022-10-31T11:11:04.934Z,21.28
2022-10-31T11:13:33.771Z,21.32
2022-10-31T11:16:29.445Z,21.34
2022-10-31T11:19:27.799Z,21.36
2022-10-31T11:21:54.804Z,21.39
2022-10-31T11:24:24.335Z,21.40
2022-10-31T11:26:52.227Z,21.43
2022-10-31T11:29:26.388Z,21.45
2022-10-31T11:31:56.085Z,21.48
2022-10-31T11:34:29.196Z,21.52
2022-10-31T11:37:02.867Z,21.55
2022-10-31T11:39:29.703Z,21.60
2022-10-31T11:42:03.803Z,21.63
2022-10-31T11:44:42.079Z,21.65
2022-10-31T11:47:16.105Z,21.69
2022-10-31T11:49:45.631Z,21.75
2022-10-31T11:52:19.781Z,21.79
2022-10-31T11:55:01.899Z,21.86
2022-10-31T11:57:32.012Z,21.97
2022-10-31T12:00:01.399Z,22.09
2022-10-31T12:02:28.212Z,22.23
2022-10-31T12:05:12.546Z,22.34
2022-10-31T12:07:39.051Z,22.45
2022-10-31T12:10:12.854Z,22.51
2022-10-31T12:13:09.584Z,22.59
2022-10-31T12:15:39.515Z,22.69
2022-10-31T12:18:05.907Z,22.74
2022-10-31T12:20:53.882Z,22.76
2022-10-31T12:23:44.241Z,22.78
2022-10-31T12:26:24.295Z,22.82
2022-10-31T12:29:15.263Z,22.81
2022-10-31T12:31:49.104Z,22.79
2022-10-31T12:34:52.488Z,22.73
2022-10-31T12:37:43.743Z,22.69
2022-10-31T12:40:16.145Z,22.68
2022-10-31T12:43:01.772Z,22.68
2022-10-31T12:45:38.070Z,22.68
2022-10-31T12:48:10.135Z,22.69
2022-10-31T12:51:04.322Z,22.66
2022-10-31T12:53:53.987Z,22.68
2022-10-31T12:56:54.304Z,22.69
2022-10-31T12:59:45.530Z,22.69
2022-10-31T13:02:20.966Z,22.71
2022-10-31T13:05:10.895Z,22.71
2022-10-31T13:07:44.732Z,22.71
2022-10-31T13:10:36.715Z,22.70
2022-10-31T13:13:22.183Z,22.71
2022-10-31T13:15:54.417Z,22.72
2022-10-31T13:18:46.480Z,22.69
2022-10-31T13:21:51.525Z,22.69
2022-10-31T13:24:35.686Z,22.64
2022-10-31T13:27:09.029Z,22.59
2022-10-31T13:29:43.656Z,22.51
2022-10-31T13:32:11.624Z,22.42
2022-10-31T13:34:48.172Z,22.33
2022-10-31T13:37:38.398Z,22.29
2022-10-31T13:40:19.777Z,22.27
2022-10-31T13:43:03.944Z,22.25
2022-10-31T13:45:33.513Z,22.24
2022-10-31T13:48:15.254Z,22.22
2022-10-31T13:50:43.084Z,22.21
2022-10-31T13:53:21.463Z,22.20
2022-10-31T13:56:06.696Z,22.16
2022-10-31T13:58:33.265Z,22.16
2022-10-31T14:01:08.864Z,22.12
2022-10-31T14:06:54.008Z,22.11
2022-10-31T14:09:28.711Z,22.13
2022-10-31T14:11:56.968Z,22.12
2022-10-31T14:14:51.161Z,22.10
2022-10-31T14:17:24.378Z,22.14
2022-10-31T14:20:01.533Z,22.12
2022-10-31T14:22:34.586Z,22.08
2022-10-31T14:25:27.258Z,22.02
2022-10-31T14:27:54.203Z,22.02
2022-10-31T14:30:23.845Z,22.00
2022-10-31T14:32:57.988Z,21.97
2022-10-31T14:35:54.764Z,21.93
2022-10-31T14:38:33.342Z,21.92
2022-10-31T14:41:37.621Z,21.91
2022-10-31T14:44:09.865Z,21.91
2022-10-31T14:47:08.116Z,21.89
2022-10-31T14:49:49.770Z,21.91
2022-10-31T14:52:19.203Z,21.92
2022-10-31T14:54:55.255Z,21.90
2022-10-31T14:57:27.833Z,21.89
2022-10-31T15:00:03.792Z,21.89
2022-10-31T15:02:53.589Z,21.87
2022-10-31T15:05:21.674Z,21.85
2022-10-31T15:07:59.063Z,21.81
2022-10-31T15:10:39.010Z,21.79
2022-10-31T15:13:20.931Z,21.77
2022-10-31T15:15:51.300Z,21.78
2022-10-31T15:18:22.864Z,21.76
2022-10-31T15:20:51.042Z,21.76
2022-10-31T15:23:24.412Z,21.72
2022-10-31T15:25:59.500Z,21.71
2022-10-31T15:28:29.050Z,21.68
2022-10-31T15:30:58.152Z,21.63
2022-10-31T15:33:33.809Z,21.57
2022-10-31T15:36:04.980Z,21.50
2022-10-31T15:38:31.622Z,21.43
2022-10-31T15:41:07.810Z,21.36
2022-10-31T15:43:37.817Z,21.32
2022-10-31T15:46:08.218Z,21.26
2022-10-31T15:48:35.915Z,21.21
2022-10-31T15:51:03.470Z,21.15
2022-10-31T15:53:48.320Z,21.10
2022-10-31T15:56:22.683Z,21.07
2022-10-31T15:58:51.472Z,21.02
2022-10-31T16:01:32.954Z,20.95
2022-10-31T16:04:13.229Z,20.91
2022-10-31T16:06:39.999Z,20.87
2022-10-31T16:09:22.704Z,20.82
2022-10-31T16:11:49.572Z,20.79
2022-10-31T16:14:25.819Z,20.75
2022-10-31T16:16:55.311Z,20.73
2022-10-31T16:19:51.250Z,20.69
2022-10-31T16:22:24.813Z,20.70
2022-10-31T16:25:14.581Z,20.65
2022-10-31T16:27:51.732Z,20.64
2022-10-31T16:30:48.388Z,20.59
2022-10-31T16:33:34.285Z,20.55
2022-10-31T16:36:30.117Z,20.51
2022-10-31T16:38:49.586Z,20.47
2022-10-31T16:41:16.037Z,20.43
2022-10-31T16:43:42.546Z,20.39
2022-10-31T16:48:46.613Z,20.35
2022-10-31T16:51:13.141Z,20.33
2022-10-31T16:53:44.136Z,20.33
2022-10-31T16:56:28.680Z,20.31
2022-10-31T16:58:55.250Z,20.29
2022-10-31T17:01:22.166Z,20.28
2022-10-31T17:03:48.750Z,20.24
2022-10-31T17:06:16.577Z,20.22
2022-10-31T17:08:43.059Z,20.18
2022-10-31T17:11:19.844Z,20.15
2022-10-31T17:13:46.467Z,20.14
2022-10-31T17:16:17.508Z,20.11
2022-10-31T17:18:44.126Z,20.09
2022-10-31T17:21:18.277Z,20.08
2022-10-31T17:23:45.044Z,20.08
2022-10-31T17:26:11.879Z,20.06
2022-10-31T17:28:38.535Z,20.07
2022-10-31T17:31:06.040Z,20.07
2022-10-31T17:33:32.605Z,20.07
2022-10-31T17:35:59.059Z,20.07
2022-10-31T17:38:25.585Z,20.06
2022-10-31T17:40:52.057Z,20.05
2022-10-31T17:43:18.817Z,20.03
2022-10-31T17:45:45.512Z,20.02
2022-10-31T17:48:12.915Z,20.00
2022-10-31T17:50:39.561Z,19.98
2022-10-31T17:53:06.042Z,19.97
2022-10-31T17:55:37.675Z,19.94
2022-10-31T17:58:05.208Z,19.92
2022-10-31T18:00:31.824Z,19.88
2022-10-31T18:02:58.871Z,19.85
2022-10-31T18:05:26.876Z,19.84
2022-10-31T18:07:53.403Z,19.80
2022-10-31T18:10:19.859Z,19.77
2022-10-31T18:12:48.567Z,19.73
2022-10-31T18:15:16.348Z,19.70
2022-10-31T18:17:42.816Z,19.67
2022-10-31T18:20:10.571Z,19.63
2022-10-31T18:22:37.094Z,19.60
2022-10-31T18:25:05.540Z,19.58
2022-10-31T18:27:33.195Z,19.53
2022-10-31T18:29:59.760Z,19.52
2022-10-31T18:32:26.207Z,19.50
2022-10-31T18:34:54.556Z,19.45
2022-10-31T18:37:21.028Z,19.43
2022-10-31T18:39:47.481Z,19.41
2022-10-31T18:42:13.971Z,19.42
2022-10-31T18:44:41.603Z,19.39
2022-10-31T18:47:08.144Z,19.38
2022-10-31T18:49:34.652Z,19.39
2022-10-31T18:52:01.269Z,19.38
2022-10-31T18:54:28.588Z,19.37
2022-10-31T18:56:55.889Z,19.35
2022-10-31T18:59:22.457Z,19.35
2022-10-31T19:01:49.116Z,19.35
2022-10-31T19:04:17.569Z,19.33
2022-10-31T19:06:44.169Z,19.31
2022-10-31T19:09:10.695Z,19.30
2022-10-31T19:11:38.492Z,19.29
2022-10-31T19:14:23.203Z,19.25
2022-10-31T19:16:52.373Z,19.25
2022-10-31T19:19:20.519Z,19.23
2022-10-31T19:21:47.294Z,19.20
2022-10-31T19:24:16.521Z,19.19
2022-10-31T19:26:43.092Z,19.19
2022-10-31T19:29:10.118Z,19.18
2022-10-31T19:31:36.593Z,19.17
2022-10-31T19:34:03.106Z,19.15
2022-10-31T19:36:45.864Z,19.13
2022-10-31T19:39:12.459Z,19.10
2022-10-31T19:41:39.076Z,19.08
2022-10-31T19:44:11.784Z,19.05
2022-10-31T19:46:59.749Z,19.01
2022-10-31T19:49:26.303Z,19.00
2022-10-31T19:51:52.834Z,18.97
2022-10-31T19:54:20.687Z,18.95
2022-10-31T19:56:47.144Z,18.92
2022-10-31T19:59:13.716Z,18.90
2022-10-31T20:01:40.260Z,18.91
2022-10-31T20:04:10.918Z,18.91
2022-10-31T20:06:40.229Z,18.91
2022-10-31T20:09:10.056Z,18.90
2022-10-31T20:11:38.702Z,18.89
2022-10-31T20:14:13.401Z,18.87
2022-10-31T20:16:40.122Z,18.87
2022-10-31T20:19:06.822Z,18.87
2022-10-31T20:21:37.214Z,18.83
2022-10-31T20:24:18.685Z,18.80
2022-10-31T20:26:45.180Z,18.81
2022-10-31T20:29:18.017Z,18.80
2022-10-31T20:31:46.049Z,18.78
2022-10-31T20:34:15.639Z,18.78
2022-10-31T20:36:42.130Z,18.77
2022-10-31T20:39:09.302Z,18.76
2022-10-31T20:41:39.446Z,18.74
2022-10-31T20:44:10.672Z,18.74
2022-10-31T20:46:37.248Z,18.73
2022-10-31T20:49:03.778Z,18.72
2022-10-31T20:51:31.715Z,18.70
2022-10-31T20:53:59.784Z,18.70
2022-10-31T20:56:27.871Z,18.69
2022-10-31T20:58:56.060Z,18.69
2022-10-31T21:01:28.541Z,18.70
2022-10-31T21:03:55.855Z,18.72
2022-10-31T21:06:23.359Z,18.71
2022-10-31T21:08:50.684Z,18.70
2022-10-31T21:11:21.803Z,18.70
2022-10-31T21:13:49.486Z,18.69
2022-10-31T21:16:19.918Z,18.68
2022-10-31T21:18:47.349Z,18.69
2022-10-31T21:21:20.726Z,18.68
2022-10-31T21:23:48.038Z,18.69
2022-10-31T21:26:19.251Z,18.68
2022-10-31T21:28:45.724Z,18.68
2022-10-31T21:31:14.910Z,18.66
2022-10-31T21:33:42.046Z,18.63
2022-10-31T21:36:09.632Z,18.62
2022-10-31T21:38:36.708Z,18.58
2022-10-31T21:41:06.913Z,18.57
2022-10-31T21:43:36.189Z,18.58
2022-10-31T21:46:05.029Z,18.59
2022-10-31T21:48:31.601Z,18.61
2022-10-31T21:51:03.029Z,18.60
2022-10-31T21:53:47.897Z,18.60
2022-10-31T21:56:14.436Z,18.60
2022-10-31T21:58:40.948Z,18.60
2022-10-31T22:01:07.478Z,18.59
2022-10-31T22:03:38.874Z,18.59
2022-10-31T22:06:08.571Z,18.58
2022-10-31T22:08:35.133Z,18.56
2022-10-31T22:11:05.833Z,18.55
2022-10-31T22:13:33.367Z,18.56
2022-10-31T22:16:02.257Z,18.55
2022-10-31T22:18:28.975Z,18.55
2022-10-31T22:21:05.066Z,18.55
2022-10-31T22:23:31.654Z,18.56
2022-10-31T22:26:14.526Z,18.56
2022-10-31T22:28:42.943Z,18.58
2022-10-31T22:33:45.302Z,18.58
2022-10-31T22:36:15.308Z,18.58
2022-10-31T22:38:41.980Z,18.59
2022-10-31T22:41:11.006Z,18.59
2022-10-31T22:43:37.946Z,18.60
2022-10-31T22:46:06.807Z,18.62
2022-10-31T22:48:42.006Z,18.64
2022-10-31T22:51:14.436Z,18.68
2022-10-31T22:53:41.393Z,18.69
2022-10-31T22:56:09.671Z,18.72
2022-10-31T22:58:36.774Z,18.77
2022-10-31T23:01:08.627Z,18.82
2022-10-31T23:03:36.163Z,18.88
2022-10-31T23:06:06.026Z,18.93
2022-10-31T23:08:35.278Z,18.99
2022-10-31T23:11:03.225Z,19.03
2022-10-31T23:13:48.439Z,19.05
2022-10-31T23:16:16.453Z,19.08
2022-10-31T23:18:49.959Z,19.08
2022-10-31T23:21:37.462Z,19.10
2022-10-31T23:24:18.701Z,19.12
2022-10-31T23:27:03.599Z,19.14
2022-10-31T23:29:30.075Z,19.15
2022-10-31T23:31:56.584Z,19.16
2022-10-31T23:34:24.340Z,19.18
2022-10-31T23:36:51.012Z,19.18
2022-10-31T23:39:20.017Z,19.19
2022-10-31T23:41:49.370Z,19.23
2022-10-31T23:44:18.716Z,19.25
2022-10-31T23:46:45.370Z,19.28
2022-10-31T23:49:11.882Z,19.29
2022-10-31T23:51:39.207Z,19.31
2022-10-31T23:54:11.861Z,19.33
2022-10-31T23:56:38.377Z,19.33
2022-10-31T23:59:05.094Z,19.35
